Data for 05/23/2008

Time Sea-Level Adjusted Pressure Absolute Pressure Temperature Relative Humidity Dew Point   
(mb) (inHg) (mb) (inHg) (C) (F) (%) (C) (F)
00:05 1004 29.65 833 24.6 5.4 41.8 92 4.2 39.6
00:10 1004 29.65 833 24.6 5.4 41.6 92 4.2 39.5
00:15 1004 29.65 833 24.6 5.3 41.5 92 4.2 39.5
00:20 1004 29.65 833 24.6 5.3 41.5 93 4.2 39.5
00:25 1004 29.65 833 24.6 5.3 41.5 93 4.2 39.6
00:30 1004 29.65 833 24.6 5.2 41.4 93 4.2 39.5
00:35 1004 29.65 833 24.6 5.3 41.5 93 4.2 39.6
00:40 1004 29.65 833 24.6 5.2 41.4 93 4.2 39.6
00:45 1004 29.65 833 24.6 5.1 41.2 94 4.2 39.6
00:50 1004 29.65 833 24.6 5.1 41.1 94 4.2 39.6
00:55 1004 29.65 833 24.6 5 41.1 95 4.2 39.6
01:00 1004 29.65 833 24.6 5 41 95 4.3 39.7
01:05 1004 29.65 833 24.6 5.1 41.1 95 4.3 39.8
01:10 1004 29.65 833 24.6 5.1 41.2 95 4.4 39.8
01:15 1004 29.65 833 24.6 5.2 41.3 95 4.4 40
01:20 1004 29.65 833 24.6 5.2 41.4 95 4.5 40.1
01:25 1004 29.65 833 24.6 5.2 41.4 95 4.5 40.1
01:30 1004 29.65 833 24.6 5.2 41.4 95 4.6 40.2
01:35 1004 29.65 833 24.6 5.3 41.6 95 4.6 40.3
01:40 1004 29.65 833 24.6 5.4 41.7 95 4.7 40.4
01:45 1004 29.65 833 24.6 5.5 41.9 95 4.7 40.5
01:50 1004 29.65 833 24.6 5.5 41.9 95 4.7 40.5
01:55 1004 29.65 833 24.6 5.5 42 94 4.7 40.5
02:00 1004 29.65 833 24.6 5.6 42.1 94 4.7 40.5
02:05 1004 29.65 833 24.6 5.7 42.2 94 4.7 40.5
02:10 1004 29.65 833 24.6 5.8 42.4 93 4.7 40.5
02:15 1004 29.65 833 24.6 5.9 42.6 91 4.6 40.2
02:20 1004 29.65 833 24.6 6 42.9 90 4.5 40
02:25 1004 29.65 833 24.6 6.1 43 89 4.5 40.1
02:30 1004 29.65 833 24.6 6.1 43 88 4.3 39.7
02:35 1004 29.65 833 24.6 6.2 43.2 87 4.3 39.7
02:40 1004 29.65 833 24.6 6.2 43.1 87 4.2 39.5
02:45 1004 29.65 833 24.6 6.2 43.1 87 4.1 39.4
02:50 1004 29.65 833 24.6 6.2 43.2 86 4.1 39.4
02:55 1004 29.65 833 24.6 6.2 43.1 86 4.1 39.4
03:00 1004 29.65 833 24.6 6.2 43.1 87 4.1 39.3
03:05 1004 29.65 833 24.6 6.2 43.1 87 4.1 39.4
03:10 1004 29.65 833 24.6 6.2 43.2 87 4.2 39.5
03:15 1004 29.65 833 24.6 6.1 43 88 4.2 39.6
03:20 1004 29.65 833 24.6 6.1 42.9 88 4.2 39.6
03:25 1004 29.65 833 24.6 6.1 42.9 88 4.2 39.6
03:30 1004 29.65 833 24.6 6.1 43 88 4.3 39.7
03:35 1004 29.65 833 24.6 6 42.9 89 4.3 39.8
03:40 1004 29.65 834 24.63 6 42.8 89 4.3 39.7
03:45 1004 29.65 834 24.63 6 42.8 89 4.3 39.8
03:50 1004 29.65 834 24.63 6 42.8 89 4.2 39.6
03:55 1004 29.65 834 24.63 6 42.8 89 4.3 39.8
04:00 1004 29.65 834 24.63 5.9 42.6 89 4.3 39.8
04:05 1004 29.65 834 24.63 5.8 42.5 90 4.3 39.8
04:10 1004 29.65 834 24.63 5.7 42.2 91 4.3 39.7
04:15 1004 29.65 834 24.63 5.6 42.1 91 4.3 39.7
04:20 1005 29.68 834 24.63 5.6 42 92 4.3 39.7
04:25 1004 29.65 834 24.63 5.5 41.9 92 4.3 39.8
04:30 1004 29.65 834 24.63 5.5 41.8 92 4.3 39.7
04:35 1004 29.65 834 24.63 5.4 41.8 92 4.3 39.8
04:40 1005 29.68 834 24.63 5.4 41.7 93 4.3 39.8
04:45 1005 29.68 834 24.63 5.4 41.7 93 4.3 39.8
04:50 1005 29.68 834 24.63 5.3 41.6 93 4.3 39.8
04:55 1005 29.68 834 24.63 5.3 41.6 93 4.3 39.8
05:00 1005 29.68 834 24.63 5.3 41.6 93 4.3 39.8
05:05 1005 29.68 834 24.63 5.3 41.5 93 4.3 39.8
05:10 1005 29.68 834 24.63 5.3 41.5 94 4.4 39.9
05:15 1005 29.68 834 24.63 5.2 41.3 94 4.3 39.8
05:20 1005 29.68 834 24.63 5.1 41.2 94 4.3 39.7
05:25 1005 29.68 834 24.63 5.1 41.2 94 4.3 39.7
05:30 1005 29.68 834 24.63 5.1 41.1 95 4.3 39.8
05:35 1005 29.68 834 24.63 5 41.1 96 4.4 40
05:40 1005 29.68 834 24.63 4.9 40.9 97 4.5 40.1
05:45 1005 29.68 834 24.63 4.9 40.8 97 4.4 40
05:50 1005 29.68 834 24.63 4.9 40.9 98 4.6 40.2
05:55 1005 29.68 834 24.63 4.8 40.7 98 4.5 40.1
06:00 1005 29.68 834 24.63 4.8 40.6 98 4.5 40.2
06:05 1005 29.68 834 24.63 4.8 40.6 98 4.5 40.1
06:10 1005 29.68 834 24.63 4.8 40.6 98 4.5 40.1
06:15 1005 29.68 834 24.63 4.7 40.5 98 4.5 40.1
06:20 1005 29.68 834 24.63 4.7 40.5 98 4.5 40
06:25 1005 29.68 834 24.63 4.7 40.5 98 4.5 40
06:30 1005 29.68 834 24.63 4.7 40.5 98 4.5 40
06:35 1005 29.68 834 24.63 4.7 40.5 98 4.5 40
06:40 1005 29.68 834 24.63 4.7 40.5 98 4.5 40.1
06:45 1005 29.68 834 24.63 4.7 40.5 99 4.5 40.1
06:50 1005 29.68 835 24.66 4.7 40.5 99 4.5 40.1
06:55 1005 29.68 835 24.66 4.7 40.4 99 4.5 40.1
07:00 1005 29.68 835 24.66 4.7 40.5 99 4.5 40.1
07:05 1005 29.68 835 24.66 4.7 40.5 99 4.5 40.2
07:10 1005 29.68 835 24.66 4.7 40.5 98 4.5 40.1
07:15 1005 29.68 835 24.66 4.7 40.5 98 4.4 40
07:20 1005 29.68 835 24.66 4.8 40.6 98 4.4 40
07:25 1005 29.68 835 24.66 4.8 40.6 98 4.5 40
07:30 1005 29.68 835 24.66 4.8 40.6 98 4.5 40
07:35 1005 29.68 835 24.66 4.7 40.5 98 4.4 40
07:40 1005 29.68 834 24.63 4.7 40.5 98 4.4 39.9
07:45 1005 29.68 834 24.63 4.7 40.5 98 4.4 39.9
07:50 1005 29.68 834 24.63 4.7 40.5 98 4.4 39.9
07:55 1005 29.68 834 24.63 4.7 40.4 98 4.4 39.9
08:00 1005 29.68 834 24.63 4.7 40.4 98 4.4 39.9
08:05 1005 29.68 834 24.63 4.7 40.4 98 4.4 40
08:10 1005 29.68 835 24.66 4.7 40.5 98 4.5 40
08:15 1005 29.68 835 24.66 4.7 40.5 98 4.4 39.9
08:20 1005 29.68 835 24.66 4.7 40.5 98 4.4 40
08:25 1005 29.68 835 24.66 4.8 40.6 98 4.5 40.1
08:30 1006 29.71 835 24.66 4.9 40.8 98 4.5 40.2
08:35 1006 29.71 835 24.66 5 41 98 4.6 40.3
08:40 1006 29.71 835 24.66 5.1 41.1 97 4.6 40.3
08:45 1006 29.71 835 24.66 5.2 41.3 97 4.7 40.4
08:50 1006 29.71 835 24.66 5.2 41.4 96 4.7 40.4
08:55 1006 29.71 835 24.66 5.3 41.5 96 4.7 40.5
09:00 1006 29.71 835 24.66 5.4 41.7 96 4.8 40.6
09:05 1006 29.71 835 24.66 5.5 41.9 95 4.8 40.7
09:10 1006 29.71 835 24.66 5.6 42 95 4.8 40.6
09:15 1006 29.71 835 24.66 5.7 42.2 95 4.9 40.8
09:20 1006 29.71 835 24.66 5.8 42.4 94 4.9 40.8
09:25 1006 29.71 835 24.66 5.9 42.5 93 4.8 40.7
09:30 1006 29.71 835 24.66 6 42.7 93 4.9 40.8
09:35 1006 29.71 835 24.66 6 42.8 92 4.8 40.6
09:40 1006 29.71 835 24.66 6 42.8 91 4.7 40.4
09:45 1006 29.71 835 24.66 6 42.8 90 4.5 40.2
09:50 1006 29.71 835 24.66 6.1 42.9 90 4.6 40.2
09:55 1006 29.71 835 24.66 6.1 42.9 90 4.6 40.3
10:00 1006 29.71 835 24.66 6.1 42.9 89 4.5 40
10:05 1006 29.71 835 24.66 6 42.8 89 4.4 39.9
10:10 1006 29.71 835 24.66 6 42.8 90 4.4 40
10:15 1006 29.71 835 24.66 6.1 43 89 4.4 40
10:20 1006 29.71 835 24.66 6.2 43.2 89 4.6 40.3
10:25 1006 29.71 835 24.66 6.4 43.4 88 4.6 40.2
10:30 1006 29.71 835 24.66 6.4 43.6 88 4.5 40.2
10:35 1006 29.71 835 24.66 6.6 43.9 87 4.6 40.3
10:40 1006 29.71 835 24.66 6.8 44.2 87 4.7 40.5
10:45 1006 29.71 835 24.66 6.9 44.4 86 4.7 40.4
10:50 1006 29.71 835 24.66 7 44.5 85 4.7 40.4
10:55 1006 29.71 836 24.69 7 44.6 85 4.6 40.3
11:00 1007 29.74 836 24.69 7.2 44.9 84 4.7 40.5
11:05 1007 29.74 836 24.69 7.3 45.1 83 4.6 40.2
11:10 1007 29.74 836 24.69 7.1 44.8 83 4.5 40.1
11:15 1007 29.74 836 24.69 7.1 44.7 84 4.6 40.2
11:20 1007 29.74 836 24.69 7.3 45.2 84 4.8 40.6
11:25 1007 29.74 836 24.69 7.4 45.4 84 4.9 40.8
11:30 1007 29.74 836 24.69 7.3 45.2 84 4.8 40.6
11:35 1007 29.74 836 24.69 7.5 45.6 83 4.9 40.8
11:40 1007 29.74 836 24.69 7.7 45.9 82 4.9 40.8
11:45 1007 29.74 836 24.69 7.9 46.3 81 4.9 40.8
11:50 1007 29.74 836 24.69 8.3 46.9 81 5.2 41.4
11:55 1007 29.74 836 24.69 8.7 47.6 80 5.5 41.8
12:00 1007 29.74 836 24.69 8.6 47.4 79 5.2 41.4
12:05 1007 29.74 836 24.69 8.7 47.7 79 5.3 41.5
12:10 1007 29.74 836 24.69 9.1 48.3 77 5.3 41.5
12:15 1007 29.74 836 24.69 9.4 49 77 5.5 42
12:20 1007 29.74 836 24.69 9.4 48.9 76 5.5 41.8
12:25 1007 29.74 836 24.69 9 48.1 78 5.3 41.5
12:30 1007 29.74 836 24.69 8.8 47.8 78 5.1 41.2
12:35 1007 29.74 836 24.69 8.7 47.7 78 5.2 41.3
12:40 1007 29.74 836 24.69 9.1 48.4 78 5.5 41.9
12:45 1007 29.74 836 24.69 9.4 49 76 5.4 41.7
12:50 1007 29.74 836 24.69 9.2 48.5 77 5.4 41.7
12:55 1007 29.74 836 24.69 9.3 48.7 77 5.4 41.7
13:00 1007 29.74 836 24.69 9.5 49.2 75 5.4 41.8
13:05 1007 29.74 837 24.72 10.5 50.8 72 5.7 42.2
13:10 1007 29.74 837 24.72 10.9 51.6 71 5.8 42.4
13:15 1008 29.77 837 24.72 10.8 51.5 71 5.7 42.3
13:20 1008 29.77 837 24.72 10.4 50.6 73 5.8 42.4
13:25 1008 29.77 837 24.72 10.2 50.3 74 5.7 42.3
13:30 1008 29.77 837 24.72 9.4 48.9 76 5.3 41.6
13:35 1008 29.77 837 24.72 9.3 48.7 75 5.1 41.3
13:40 1008 29.77 837 24.72 9.5 49 76 5.4 41.8
13:45 1008 29.77 837 24.72 10.2 50.4 73 5.5 41.9
13:50 1008 29.77 837 24.72 10.5 50.9 72 5.6 42.1
13:55 1008 29.77 837 24.72 11.3 52.4 68 5.8 42.4
14:00 1008 29.77 837 24.72 11.7 53.1 69 6.2 43.1
14:05 1008 29.77 837 24.72 11.5 52.7 70 6.3 43.3
14:10 1008 29.77 837 24.72 10.9 51.6 73 6.3 43.4
14:15 1008 29.77 837 24.72 10.3 50.6 76 6.3 43.4
14:20 1008 29.77 837 24.72 10 50.1 78 6.3 43.4
14:25 1008 29.77 837 24.72 9.9 49.7 78 6.2 43.1
14:30 1008 29.77 837 24.72 10.1 50.2 77 6.3 43.4
14:35 1008 29.77 837 24.72 10.1 50.2 77 6.3 43.3
14:40 1008 29.77 837 24.72 10.5 50.9 77 6.6 43.9
14:45 1008 29.77 837 24.72 10.4 50.7 76 6.4 43.5
14:50 1008 29.77 837 24.72 10.4 50.7 77 6.4 43.6
14:55 1008 29.77 837 24.72 10.6 51 76 6.5 43.8
15:00 1008 29.77 837 24.72 10.6 51 77 6.7 44.1
15:05 1008 29.77 837 24.72 10.7 51.2 75 6.4 43.5
15:10 1008 29.77 837 24.72 10.4 50.8 74 6 42.9
15:15 1008 29.77 837 24.72 10.1 50.2 75 5.9 42.7
15:20 1008 29.77 838 24.75 10 50 76 5.9 42.6
15:25 1008 29.77 838 24.75 9.7 49.5 77 5.8 42.5
15:30 1008 29.77 838 24.75 9.8 49.6 77 6 42.8
15:35 1008 29.77 838 24.75 9.7 49.4 78 6 42.8
15:40 1008 29.77 838 24.75 9.7 49.4 77 5.9 42.7
15:45 1008 29.77 838 24.75 9.7 49.4 79 6.1 43.1
15:50 1009 29.8 838 24.75 9.8 49.7 79 6.4 43.4
15:55 1009 29.8 838 24.75 10.2 50.4 76 6.2 43.2
16:00 1009 29.8 838 24.75 10.5 50.9 76 6.4 43.5
16:05 1009 29.8 838 24.75 10.4 50.7 76 6.3 43.4
16:10 1009 29.8 838 24.75 10.3 50.6 76 6.2 43.2
16:15 1009 29.8 838 24.75 10.1 50.2 76 6.1 42.9
16:20 1009 29.8 838 24.75 10.2 50.4 76 6.2 43.1
16:25 1009 29.8 838 24.75 10.3 50.6 75 6.1 43
16:30 1009 29.8 838 24.75 10.3 50.5 76 6.2 43.1
16:35 1009 29.8 838 24.75 10.2 50.4 76 6.1 43
16:40 1009 29.8 838 24.75 10.3 50.5 75 6.1 43
16:45 1009 29.8 838 24.75 10.2 50.4 76 6.2 43.2
16:50 1009 29.8 838 24.75 10.3 50.5 76 6.3 43.4
16:55 1009 29.8 838 24.75 10.4 50.7 76 6.4 43.5
17:00 1009 29.8 838 24.75 10.5 50.9 75 6.3 43.3
17:05 1009 29.8 838 24.75 10.4 50.8 75 6.3 43.3
17:10 1009 29.8 838 24.75 10.4 50.7 76 6.4 43.5
17:15 1008 29.77 838 24.75 10.4 50.8 75 6.3 43.4
17:20 1008 29.77 838 24.75 10.6 51 75 6.4 43.5
17:25 1008 29.77 837 24.72 10.9 51.5 73 6.3 43.3
17:30 1008 29.77 837 24.72 11 51.8 73 6.3 43.4
17:35 1008 29.77 837 24.72 11 51.8 73 6.4 43.5
17:40 1008 29.77 837 24.72 11.1 52 73 6.4 43.6
17:45 1008 29.77 838 24.75 11.3 52.3 70 6.1 42.9
17:50 1008 29.77 838 24.75 11.3 52.3 69 5.9 42.7
17:55 1008 29.77 838 24.75 11.3 52.4 69 5.9 42.7
18:00 1009 29.8 838 24.75 11.5 52.6 69 6.1 43
18:05 1009 29.8 838 24.75 11.2 52.2 70 6 42.7
18:10 1009 29.8 838 24.75 11 51.7 70 5.7 42.3
18:15 1008 29.77 838 24.75 10.8 51.4 71 5.8 42.4
18:20 1009 29.8 838 24.75 10.8 51.5 72 6 42.8
18:25 1009 29.8 838 24.75 10.7 51.2 73 6.1 43
18:30 1009 29.8 838 24.75 10.7 51.2 74 6.2 43.2
18:35 1009 29.8 838 24.75 10.6 51 75 6.3 43.3
18:40 1009 29.8 838 24.75 10.5 50.9 75 6.3 43.3
18:45 1008 29.77 838 24.75 10.4 50.7 76 6.3 43.4
18:50 1008 29.77 838 24.75 10.2 50.4 77 6.3 43.4
18:55 1008 29.77 838 24.75 10.2 50.3 80 7 44.5
19:00 1009 29.8 838 24.75 9.8 49.6 85 7.4 45.3
19:05 1009 29.8 838 24.75 9.4 48.8 86 7.2 44.9
19:10 1009 29.8 838 24.75 9.3 48.7 86 7.1 44.8
19:15 1009 29.8 838 24.75 9.3 48.8 86 7.1 44.8
19:20 1009 29.8 838 24.75 9.4 48.8 86 7.1 44.8
19:25 1009 29.8 838 24.75 9.4 48.9 86 7.2 44.9
19:30 1009 29.8 838 24.75 9.3 48.8 86 7.2 44.9
19:35 1009 29.8 838 24.75 9.2 48.6 86 7.1 44.7
19:40 1009 29.8 838 24.75 9.1 48.4 86 6.8 44.2
19:45 1009 29.8 838 24.75 9.1 48.3 85 6.7 44
19:50 1009 29.8 838 24.75 9 48.3 84 6.6 43.8
19:55 1009 29.8 839 24.78 9 48.3 84 6.6 43.8
20:00 1009 29.8 839 24.78 9.1 48.3 85 6.6 43.9
20:05 1009 29.8 839 24.78 9.1 48.3 85 6.6 43.9
20:10 1009 29.8 839 24.78 9 48.3 84 6.6 43.8
20:15 1009 29.8 839 24.78 9 48.3 84 6.5 43.7
20:20 1009 29.8 839 24.78 9 48.2 84 6.5 43.7
20:25 1010 29.83 839 24.78 9 48.2 84 6.5 43.7
20:30 1010 29.83 839 24.78 8.9 48 84 6.4 43.6
20:35 1010 29.83 839 24.78 8.8 47.8 85 6.4 43.5
20:40 1010 29.83 839 24.78 8.6 47.6 85 6.3 43.4
20:45 1010 29.83 839 24.78 8.5 47.4 86 6.3 43.3
20:50 1010 29.83 839 24.78 8.5 47.2 86 6.2 43.2
20:55 1010 29.83 839 24.78 8.4 47.1 86 6.3 43.3
21:00 1009 29.8 839 24.78 8.2 46.8 87 6.2 43.2
21:05 1009 29.8 839 24.78 8.1 46.6 88 6.2 43.2
21:10 1010 29.83 839 24.78 8 46.5 88 6.2 43.2
21:15 1010 29.83 839 24.78 8.1 46.5 88 6.2 43.2
21:20 1010 29.83 839 24.78 8.2 46.7 88 6.3 43.3
21:25 1010 29.83 839 24.78 8.2 46.7 88 6.3 43.4
21:30 1010 29.83 839 24.78 8.2 46.7 88 6.3 43.4
21:35 1010 29.83 839 24.78 8.1 46.5 89 6.4 43.4
21:40 1010 29.83 839 24.78 8 46.5 89 6.3 43.4
21:45 1010 29.83 839 24.78 8.1 46.5 89 6.3 43.4
21:50 1010 29.83 839 24.78 8.1 46.6 89 6.3 43.4
21:55 1010 29.83 839 24.78 8.1 46.6 89 6.4 43.4
22:00 1010 29.83 839 24.78 8.1 46.6 89 6.4 43.5
22:05 1010 29.83 839 24.78 8.1 46.6 89 6.4 43.6
22:10 1010 29.83 839 24.78 8.1 46.5 90 6.5 43.7
22:15 1010 29.83 839 24.78 8.1 46.5 91 6.6 43.9
22:20 1010 29.83 839 24.78 8.1 46.5 91 6.6 44
22:25 1010 29.83 839 24.78 8 46.5 91 6.7 44
22:30 1010 29.83 839 24.78 8.1 46.5 91 6.7 44.1
22:35 1010 29.83 839 24.78 8.1 46.6 91 6.8 44.2
22:40 1010 29.83 839 24.78 8.1 46.6 91 6.7 44.1
22:45 1009 29.8 839 24.78 8.1 46.5 91 6.7 44.1
22:50 1009 29.8 838 24.75 8.1 46.5 91 6.7 44.1
22:55 1009 29.8 838 24.75 8.1 46.5 91 6.7 44.1
23:00 1009 29.8 838 24.75 8 46.5 92 6.7 44.1
23:05 1009 29.8 839 24.78 8.1 46.5 92 6.8 44.2
23:10 1010 29.83 839 24.78 8.1 46.6 92 6.8 44.3
23:15 1010 29.83 839 24.78 8.1 46.7 91 6.8 44.3
23:20 1010 29.83 839 24.78 8.1 46.7 92 6.9 44.4
23:25 1010 29.83 839 24.78 8.2 46.8 92 7 44.7
23:30 1010 29.83 839 24.78 8.3 46.9 93 7.2 44.9
23:35 1010 29.83 839 24.78 8.3 46.9 94 7.3 45.1
23:40 1010 29.83 839 24.78 8.3 46.9 93 7.3 45.1
23:45 1010 29.83 839 24.78 8.3 46.9 93 7.2 44.9
23:50 1010 29.83 839 24.78 8.3 47 92 7.1 44.8
23:55 1010 29.83 839 24.78 8.3 47 92 7.1 44.8
24:00 1010 29.83 839 24.78 8.3 47 92 7.1 44.8